Aviation Digital Data Service (ADDS)

Output produced by METARs form (0849 UTC 25 September 2016)
found at http://aviationweather.gov/adds/metars/
 
KBPT 250753Z AUTO 15003KT 10SM CLR 25/23 A2997 RMK AO2 LTG DSNT SE SLP150 T02500233